createdAt,value
2018-10-04T00:01:23.076Z,95899.91
2018-10-04T00:03:49.724Z,95900.14
2018-10-04T00:06:16.379Z,95897.10
2018-10-04T00:08:43.062Z,95892.30
2018-10-04T00:11:09.674Z,95897.38
2018-10-04T00:13:37.527Z,95899.41
2018-10-04T00:16:02.975Z,95900.53
2018-10-04T00:18:29.670Z,95904.71
2018-10-04T00:20:56.614Z,95895.11
2018-10-04T00:23:24.642Z,95899.41
2018-10-04T00:25:49.941Z,95903.84
2018-10-04T00:28:16.604Z,95907.89
2018-10-04T00:30:43.297Z,95907.00
2018-10-04T00:33:10.009Z,95907.77
2018-10-04T00:35:36.708Z,95909.28
2018-10-04T00:38:03.358Z,95913.06
2018-10-04T00:40:30.049Z,95916.22
2018-10-04T00:42:56.673Z,95911.56
2018-10-04T00:45:23.366Z,95904.23
2018-10-04T00:47:50.073Z,95907.38
2018-10-04T00:50:18.335Z,95909.30
2018-10-04T00:52:43.376Z,95910.92
2018-10-04T00:55:10.074Z,95910.31
2018-10-04T00:57:36.689Z,95909.94
2018-10-04T01:00:03.409Z,95908.65
2018-10-04T01:02:32.320Z,95911.43
2018-10-04T01:04:56.828Z,95917.63
2018-10-04T01:07:23.439Z,95923.58
2018-10-04T01:09:50.169Z,95919.14
2018-10-04T01:12:16.771Z,95917.61
2018-10-04T01:14:43.411Z,95929.75
2018-10-04T01:17:10.070Z,95928.11
2018-10-04T01:19:39.842Z,95925.45
2018-10-04T01:22:06.529Z,95932.92
2018-10-04T01:24:33.283Z,95917.87
2018-10-04T01:27:01.840Z,95925.70
2018-10-04T01:29:26.637Z,95932.80
2018-10-04T01:31:53.335Z,95926.61
2018-10-04T01:34:23.069Z,95934.29
2018-10-04T01:36:49.729Z,95935.83
2018-10-04T01:39:16.366Z,95934.67
2018-10-04T01:41:43.056Z,95940.11
2018-10-04T01:44:09.793Z,95946.57
2018-10-04T01:46:36.453Z,95952.63
2018-10-04T01:49:03.136Z,95953.14
2018-10-04T01:51:29.754Z,95963.37
2018-10-04T01:53:56.496Z,95964.13
2018-10-04T01:56:23.145Z,95959.06
2018-10-04T01:58:50.890Z,95965.14
2018-10-04T02:01:17.499Z,95962.37
2018-10-04T02:03:44.138Z,95959.07
2018-10-04T02:06:10.889Z,95965.78
2018-10-04T02:08:37.536Z,95961.09
2018-10-04T02:11:04.178Z,95964.88
2018-10-04T02:13:32.640Z,95966.27
2018-10-04T02:15:59.376Z,95962.97
2018-10-04T02:18:26.074Z,95969.05
2018-10-04T02:20:52.682Z,95963.98
2018-10-04T02:23:19.409Z,95971.56
2018-10-04T02:25:46.028Z,95970.17
2018-10-04T02:28:12.672Z,95977.02
2018-10-04T02:30:39.440Z,95980.42
2018-10-04T02:33:06.219Z,95978.27
2018-10-04T02:35:32.854Z,95979.52
2018-10-04T02:37:59.739Z,95983.06
2018-10-04T02:40:26.465Z,95992.66
2018-10-04T02:42:53.149Z,95989.25
2018-10-04T02:45:19.785Z,95998.22
2018-10-04T02:47:46.622Z,95996.55
2018-10-04T02:50:15.827Z,95998.22
2018-10-04T02:52:42.438Z,95993.53
2018-10-04T02:55:09.143Z,95997.20
2018-10-04T02:57:35.786Z,95995.16
2018-10-04T03:00:02.437Z,95998.19
2018-10-04T03:02:29.181Z,95999.84
2018-10-04T03:04:55.869Z,95996.80
2018-10-04T03:07:22.935Z,95988.98
2018-10-04T03:09:49.709Z,95996.66
2018-10-04T03:12:16.327Z,95996.23
2018-10-04T03:14:43.052Z,96000.81
2018-10-04T03:17:09.809Z,96001.18
2018-10-04T03:19:36.548Z,95994.78
2018-10-04T03:22:03.260Z,95999.87
2018-10-04T03:24:29.909Z,96000.73
2018-10-04T03:26:56.585Z,95997.89
2018-10-04T03:29:23.242Z,96003.52
2018-10-04T03:31:52.913Z,96002.59
2018-10-04T03:34:19.644Z,96005.05
2018-10-04T03:36:46.281Z,96008.59
2018-10-04T03:39:12.970Z,96010.30
2018-10-04T03:41:39.622Z,96010.10
2018-10-04T03:44:06.298Z,96005.33
2018-10-04T03:46:34.193Z,96010.80
2018-10-04T03:48:59.665Z,96010.56
2018-10-04T03:51:26.627Z,96018.80
2018-10-04T03:53:53.279Z,96018.66
2018-10-04T03:56:20.004Z,96028.66
2018-10-04T03:58:46.692Z,96024.37
2018-10-04T04:01:13.340Z,96023.22
2018-10-04T04:03:40.018Z,96024.59
2018-10-04T04:06:08.938Z,96026.09
2018-10-04T04:08:35.638Z,96026.73
2018-10-04T04:11:02.325Z,96030.64
2018-10-04T04:13:28.974Z,96033.84
2018-10-04T04:15:55.777Z,96032.93
2018-10-04T04:18:22.433Z,96034.59
2018-10-04T04:20:49.122Z,96046.23
2018-10-04T04:23:15.757Z,96045.08
2018-10-04T04:25:42.406Z,96042.92
2018-10-04T04:28:09.057Z,96044.97
2018-10-04T04:30:35.922Z,96050.17
2018-10-04T04:33:02.526Z,96052.17
2018-10-04T04:35:29.173Z,96049.13
2018-10-04T04:38:00.627Z,96049.78
2018-10-04T04:40:22.499Z,96044.05
2018-10-04T04:42:49.155Z,96045.95
2018-10-04T04:45:15.804Z,96065.56
2018-10-04T04:47:42.467Z,96061.01
2018-10-04T04:50:09.197Z,96059.09
2018-10-04T04:52:36.028Z,96050.10
2018-10-04T04:55:02.772Z,96059.58
2018-10-04T04:57:32.753Z,96058.66
2018-10-04T05:00:00.144Z,96055.73
2018-10-04T05:02:26.883Z,96061.64
2018-10-04T05:04:53.533Z,96064.92
2018-10-04T05:07:20.336Z,96061.95
2018-10-04T05:09:50.258Z,96069.04
2018-10-04T05:12:17.017Z,96070.36
2018-10-04T05:14:43.690Z,96069.42
2018-10-04T05:17:10.519Z,96070.98
2018-10-04T05:19:37.279Z,96077.55
2018-10-04T05:22:04.029Z,96071.47
2018-10-04T05:24:30.638Z,96073.09
2018-10-04T05:26:57.456Z,96078.02
2018-10-04T05:29:24.248Z,96080.73
2018-10-04T05:31:50.886Z,96082.89
2018-10-04T05:34:17.518Z,96087.48
2018-10-04T05:36:44.521Z,96091.84
2018-10-04T05:39:11.289Z,96091.47
2018-10-04T05:41:40.935Z,96093.57
2018-10-04T05:44:07.580Z,96098.66
2018-10-04T05:46:34.336Z,96107.48
2018-10-04T05:49:01.149Z,96108.59
2018-10-04T05:51:30.167Z,96107.59
2018-10-04T05:53:57.002Z,96112.07
2018-10-04T05:56:23.669Z,96110.51
2018-10-04T05:58:50.393Z,96119.20
2018-10-04T06:01:17.180Z,96123.13
2018-10-04T06:03:43.852Z,96124.24
2018-10-04T06:06:10.580Z,96132.75
2018-10-04T06:08:40.233Z,96140.25
2018-10-04T06:11:06.889Z,96142.46
2018-10-04T06:13:33.576Z,96138.02
2018-10-04T06:16:00.257Z,96143.45
2018-10-04T06:18:26.932Z,96138.19
2018-10-04T06:20:53.699Z,96141.61
2018-10-04T06:23:20.447Z,96140.94
2018-10-04T06:25:47.181Z,96137.40
2018-10-04T06:28:13.921Z,96143.17
2018-10-04T06:30:40.632Z,96142.83
2018-10-04T06:33:07.445Z,96143.94
2018-10-04T06:35:34.152Z,96149.66
2018-10-04T06:38:00.905Z,96146.93
2018-10-04T06:40:27.616Z,96146.78
2018-10-04T06:42:54.235Z,96153.72
2018-10-04T06:45:20.980Z,96148.70
2018-10-04T06:47:47.742Z,96153.84
2018-10-04T06:50:14.543Z,96149.48
2018-10-04T06:52:41.234Z,96153.01
2018-10-04T06:55:08.099Z,96152.05
2018-10-04T06:57:34.760Z,96144.56
2018-10-04T07:00:03.682Z,96142.64
2018-10-04T07:02:28.131Z,96146.42
2018-10-04T07:04:54.790Z,96142.95
2018-10-04T07:07:22.633Z,96146.17
2018-10-04T07:09:49.323Z,96146.09
2018-10-04T07:12:16.022Z,96149.10
2018-10-04T07:14:42.635Z,96148.88
2018-10-04T07:17:09.333Z,96148.44
2018-10-04T07:19:36.069Z,96150.20
2018-10-04T07:22:02.726Z,96149.45
2018-10-04T07:24:29.413Z,96146.43
2018-10-04T07:26:56.134Z,96145.93
2018-10-04T07:29:22.726Z,96151.02
2018-10-04T07:31:49.582Z,96151.97
2018-10-04T07:34:16.218Z,96152.26
2018-10-04T07:36:42.930Z,96152.43
2018-10-04T07:39:09.585Z,96148.60
2018-10-04T07:41:36.342Z,96156.03
2018-10-04T07:44:03.234Z,96149.92
2018-10-04T07:46:29.935Z,96150.23
2018-10-04T07:48:56.608Z,96147.41
2018-10-04T07:51:23.282Z,96149.33
2018-10-04T07:53:52.716Z,96152.25
2018-10-04T07:56:19.468Z,96156.33
2018-10-04T07:58:47.490Z,96154.12
2018-10-04T08:01:12.931Z,96158.41
2018-10-04T08:03:39.619Z,96153.44
2018-10-04T08:06:06.387Z,96152.94
2018-10-04T08:08:33.008Z,96152.72
2018-10-04T08:10:59.727Z,96155.38
2018-10-04T08:13:26.406Z,96156.31
2018-10-04T08:15:53.173Z,96151.11
2018-10-04T08:18:19.879Z,96145.34
2018-10-04T08:20:46.571Z,96148.00
2018-10-04T08:23:15.917Z,96147.80
2018-10-04T08:25:42.561Z,96151.16
2018-10-04T08:28:09.231Z,96149.72
2018-10-04T08:30:35.955Z,96149.80
2018-10-04T08:33:02.721Z,96151.92
2018-10-04T08:35:29.428Z,96150.13
2018-10-04T08:37:56.082Z,96147.43
2018-10-04T08:40:22.911Z,96144.11
2018-10-04T08:42:49.604Z,96135.76
2018-10-04T08:45:16.305Z,96144.83
2018-10-04T08:47:43.048Z,96133.92
2018-10-04T08:50:09.802Z,96132.47
2018-10-04T08:52:36.538Z,96130.08
2018-10-04T08:55:03.241Z,96135.95
2018-10-04T08:57:29.882Z,96139.88
2018-10-04T08:59:56.522Z,96137.80
2018-10-04T09:02:23.316Z,96137.80
2018-10-04T09:04:50.103Z,96133.89
2018-10-04T09:07:16.946Z,96139.22
2018-10-04T09:09:43.518Z,96134.23
2018-10-04T09:12:10.182Z,96136.60
2018-10-04T09:14:36.895Z,96131.32
2018-10-04T09:17:03.689Z,96137.93
2018-10-04T09:19:30.332Z,96130.88
2018-10-04T09:21:57.053Z,96128.37
2018-10-04T09:24:24.058Z,96124.42
2018-10-04T09:26:50.734Z,96119.31
2018-10-04T09:29:17.411Z,96124.15
2018-10-04T09:31:44.068Z,96123.09
2018-10-04T09:34:10.774Z,96118.34
2018-10-04T09:36:37.474Z,96119.36
2018-10-04T09:39:04.207Z,96115.28
2018-10-04T09:41:30.863Z,96112.91
2018-10-04T09:43:57.638Z,96105.86
2018-10-04T09:46:24.323Z,96116.21
2018-10-04T09:48:51.035Z,96116.25
2018-10-04T09:51:17.708Z,96118.77
2018-10-04T09:53:44.938Z,96122.86
2018-10-04T09:56:11.564Z,96121.91
2018-10-04T09:58:38.300Z,96112.86
2018-10-04T10:01:05.016Z,96118.09
2018-10-04T10:03:31.717Z,96106.29
2018-10-04T10:05:58.505Z,96110.27
2018-10-04T10:08:25.343Z,96103.55
2018-10-04T10:10:52.011Z,96106.16
2018-10-04T10:13:23.159Z,96107.43
2018-10-04T10:15:51.230Z,96103.43
2018-10-04T10:18:16.541Z,96103.23
2018-10-04T10:20:43.289Z,96096.63
2018-10-04T10:23:09.985Z,96091.81
2018-10-04T10:25:36.648Z,96086.19
2018-10-04T10:28:03.310Z,96090.89
2018-10-04T10:30:29.982Z,96086.36
2018-10-04T10:32:56.764Z,96084.22
2018-10-04T10:35:23.415Z,96078.88
2018-10-04T10:37:50.087Z,96077.87
2018-10-04T10:40:16.910Z,96074.85
2018-10-04T10:42:43.426Z,96071.73
2018-10-04T10:45:10.106Z,96072.68
2018-10-04T10:47:36.797Z,96067.31
2018-10-04T10:50:03.505Z,96063.95
2018-10-04T10:52:30.141Z,96068.96
2018-10-04T10:54:57.947Z,96068.52
2018-10-04T10:57:24.716Z,96063.35
2018-10-04T10:59:51.413Z,96057.80
2018-10-04T11:02:18.112Z,96061.24
2018-10-04T11:04:44.809Z,96048.35
2018-10-04T11:07:11.473Z,96054.80
2018-10-04T11:09:38.132Z,96051.70
2018-10-04T11:12:04.890Z,96050.16
2018-10-04T11:14:31.564Z,96041.22
2018-10-04T11:16:58.350Z,96043.61
2018-10-04T11:19:24.952Z,96037.22
2018-10-04T11:21:54.581Z,96039.19
2018-10-04T11:24:21.309Z,96035.00
2018-10-04T11:26:48.045Z,96038.45
2018-10-04T11:29:16.178Z,96030.16
2018-10-04T11:31:41.403Z,96033.50
2018-10-04T11:34:08.078Z,96021.05
2018-10-04T11:36:34.828Z,96024.22
2018-10-04T11:39:01.558Z,96024.07
2018-10-04T11:41:32.406Z,96015.84
2018-10-04T11:43:59.397Z,96014.82
2018-10-04T11:46:26.006Z,96017.42
2018-10-04T11:48:52.787Z,96017.42
2018-10-04T11:51:20.019Z,96008.41
2018-10-04T11:53:46.759Z,96015.14
2018-10-04T11:56:14.447Z,96011.44
2018-10-04T11:58:41.196Z,96014.78
2018-10-04T12:01:07.961Z,96013.64
2018-10-04T12:03:34.665Z,96005.93
2018-10-04T12:06:01.331Z,96011.09
2018-10-04T12:08:28.084Z,95995.39
2018-10-04T12:10:54.911Z,96007.64
2018-10-04T12:13:21.868Z,96012.95
2018-10-04T12:15:48.515Z,96008.03
2018-10-04T12:18:15.143Z,96002.73
2018-10-04T12:20:41.878Z,96003.77
2018-10-04T12:23:08.528Z,95994.61
2018-10-04T12:25:35.236Z,95994.65
2018-10-04T12:28:01.897Z,96004.48
2018-10-04T12:30:28.554Z,95998.52
2018-10-04T12:32:55.242Z,95993.04
2018-10-04T12:35:21.925Z,95995.45
2018-10-04T12:37:48.648Z,95992.32
2018-10-04T12:40:15.313Z,95998.06
2018-10-04T12:42:41.940Z,95997.52
2018-10-04T12:45:08.707Z,96002.42
2018-10-04T12:47:35.360Z,95996.19
2018-10-04T12:50:03.067Z,96000.69
2018-10-04T12:52:29.925Z,96002.27
2018-10-04T12:54:56.562Z,95997.33
2018-10-04T12:57:23.281Z,96006.33
2018-10-04T12:59:49.913Z,96007.93
2018-10-04T13:02:16.577Z,95999.25
2018-10-04T13:04:44.328Z,95997.33
2018-10-04T13:07:11.228Z,95999.63
2018-10-04T13:09:37.895Z,95998.49
2018-10-04T13:12:04.581Z,95996.98
2018-10-04T13:14:31.344Z,95999.92
2018-10-04T13:16:59.303Z,96002.02
2018-10-04T13:19:24.695Z,96003.97
2018-10-04T13:21:51.394Z,95996.29
2018-10-04T13:24:18.048Z,95993.75
2018-10-04T13:26:44.729Z,95998.92
2018-10-04T13:29:11.452Z,95996.67
2018-10-04T13:31:38.208Z,95998.73
2018-10-04T13:34:04.938Z,96002.02
2018-10-04T13:36:31.586Z,96000.25
2018-10-04T13:38:58.265Z,95998.23
2018-10-04T13:41:24.922Z,95987.99
2018-10-04T13:43:51.620Z,95994.30
2018-10-04T13:46:20.002Z,95998.08
2018-10-04T13:48:45.259Z,95995.28
2018-10-04T13:51:13.959Z,95993.14
2018-10-04T13:53:40.617Z,95991.10
2018-10-04T13:56:07.338Z,95997.58
2018-10-04T13:58:34.247Z,95989.66
2018-10-04T14:01:00.919Z,95989.57
2018-10-04T14:03:27.653Z,95999.69
2018-10-04T14:05:54.366Z,95987.84
2018-10-04T14:08:21.056Z,95990.16
2018-10-04T14:10:47.697Z,95988.80
2018-10-04T14:13:15.836Z,95991.73
2018-10-04T14:15:41.092Z,95987.11
2018-10-04T14:18:07.793Z,95985.13
2018-10-04T14:20:34.457Z,95983.52
2018-10-04T14:23:01.225Z,95987.19
2018-10-04T14:25:27.870Z,95984.11
2018-10-04T14:27:54.508Z,95983.77
2018-10-04T14:30:24.062Z,95982.06
2018-10-04T14:32:50.789Z,95981.22
2018-10-04T14:35:18.562Z,95981.26
2018-10-04T14:37:45.201Z,95986.34
2018-10-04T14:40:10.664Z,95984.05
2018-10-04T14:42:37.311Z,95984.85
2018-10-04T14:45:04.042Z,95988.53
2018-10-04T14:47:32.217Z,95988.75
2018-10-04T14:49:57.657Z,95988.57
2018-10-04T14:52:27.322Z,95989.55
2018-10-04T14:54:54.028Z,95990.98
2018-10-04T14:57:21.632Z,95987.05
2018-10-04T14:59:48.269Z,95989.84
2018-10-04T15:02:15.318Z,95986.63
2018-10-04T15:04:42.101Z,95986.77
2018-10-04T15:07:08.750Z,95992.23
2018-10-04T15:09:35.539Z,95993.50
2018-10-04T15:12:02.214Z,95994.41
2018-10-04T15:14:28.855Z,95997.58
2018-10-04T15:16:55.590Z,96002.98
2018-10-04T15:19:22.554Z,95999.20
2018-10-04T15:21:49.297Z,95998.09
2018-10-04T15:24:16.035Z,96003.52
2018-10-04T15:26:42.790Z,96001.99
2018-10-04T15:29:09.457Z,96004.25
2018-10-04T15:31:37.296Z,96003.46
2018-10-04T15:34:02.810Z,96011.94
2018-10-04T15:36:29.549Z,96012.50
2018-10-04T15:38:56.188Z,96017.55
2018-10-04T15:41:22.917Z,96020.25
2018-10-04T15:43:49.588Z,96026.02
2018-10-04T15:46:16.268Z,96031.61
2018-10-04T15:48:42.945Z,96034.05
2018-10-04T15:51:09.712Z,96036.80
2018-10-04T15:53:36.331Z,96034.02
2018-10-04T15:56:03.038Z,96045.83
2018-10-04T15:58:29.802Z,96042.27
2018-10-04T16:00:59.332Z,96049.39
2018-10-04T16:03:25.979Z,96054.65
2018-10-04T16:05:53.891Z,96051.15
2018-10-04T16:08:19.258Z,96046.59
2018-10-04T16:10:47.176Z,96057.16
2018-10-04T16:13:12.628Z,96056.77
2018-10-04T16:15:39.271Z,96053.50
2018-10-04T16:18:06.001Z,96056.80
2018-10-04T16:20:32.701Z,96055.14
2018-10-04T16:22:59.391Z,96058.08
2018-10-04T16:25:26.117Z,96061.08
2018-10-04T16:27:52.904Z,96063.56
2018-10-04T16:30:19.551Z,96067.52
2018-10-04T16:32:46.212Z,96067.79
2018-10-04T16:35:12.934Z,96066.52
2018-10-04T16:37:41.011Z,96069.97
2018-10-04T16:40:06.387Z,96066.79
2018-10-04T16:42:33.040Z,96069.59
2018-10-04T16:44:59.776Z,96080.27
2018-10-04T16:47:26.468Z,96077.36
2018-10-04T16:49:53.220Z,96076.74
2018-10-04T16:52:19.960Z,96082.69
2018-10-04T16:54:48.050Z,96077.75
2018-10-04T16:57:17.204Z,96081.55
2018-10-04T16:59:42.803Z,96083.98
2018-10-04T17:02:12.465Z,96091.33
2018-10-04T17:04:39.166Z,96090.19
2018-10-04T17:07:05.802Z,96096.16
2018-10-04T17:09:32.419Z,96098.09
2018-10-04T17:11:59.065Z,96098.34
2018-10-04T17:14:25.915Z,96108.60
2018-10-04T17:16:55.405Z,96106.70
2018-10-04T17:19:22.045Z,96109.21
2018-10-04T17:21:48.740Z,96111.23
2018-10-04T17:24:15.384Z,96112.25
2018-10-04T17:26:42.153Z,96114.55
2018-10-04T17:29:08.806Z,96120.00
2018-10-04T17:31:35.450Z,96121.37
2018-10-04T17:34:02.166Z,96119.60
2018-10-04T17:36:28.855Z,96123.34
2018-10-04T17:38:55.597Z,96131.72
2018-10-04T17:41:22.272Z,96130.58
2018-10-04T17:43:49.099Z,96133.00
2018-10-04T17:46:15.845Z,96131.97
2018-10-04T17:48:42.483Z,96144.00
2018-10-04T17:51:09.277Z,96147.32
2018-10-04T17:53:36.094Z,96149.21
2018-10-04T17:56:02.707Z,96146.80
2018-10-04T17:58:29.404Z,96157.32
2018-10-04T18:00:56.055Z,96151.64
2018-10-04T18:03:22.702Z,96151.14
2018-10-04T18:05:49.343Z,96157.09
2018-10-04T18:08:18.750Z,96154.94
2018-10-04T18:10:45.435Z,96158.38
2018-10-04T18:13:12.234Z,96153.81
2018-10-04T18:15:38.875Z,96153.54
2018-10-04T18:18:05.544Z,96162.42
2018-10-04T18:20:32.351Z,96163.18
2018-10-04T18:22:59.062Z,96162.05
2018-10-04T18:25:25.866Z,96161.92
2018-10-04T18:27:52.610Z,96163.33
2018-10-04T18:30:19.381Z,96159.27
2018-10-04T18:32:46.120Z,96160.80
2018-10-04T18:35:12.813Z,96170.80
2018-10-04T18:37:42.164Z,96173.58
2018-10-04T18:40:08.850Z,96180.80
2018-10-04T18:42:36.845Z,96181.44
2018-10-04T18:45:02.127Z,96176.38
2018-10-04T18:47:28.863Z,96173.08
2018-10-04T18:49:55.550Z,96174.09
2018-10-04T18:52:22.333Z,96175.25
2018-10-04T18:54:48.989Z,96181.45
2018-10-04T18:57:15.645Z,96184.73
2018-10-04T18:59:44.786Z,96194.98
2018-10-04T19:02:12.832Z,96193.23
2018-10-04T19:04:38.237Z,96198.79
2018-10-04T19:07:05.909Z,96193.98
2018-10-04T19:09:32.621Z,96193.34
2018-10-04T19:11:59.329Z,96188.53
2018-10-04T19:14:25.970Z,96197.91
2018-10-04T19:16:52.729Z,96199.55
2018-10-04T19:19:19.392Z,96204.35
2018-10-04T19:21:46.118Z,96198.78
2018-10-04T19:24:12.720Z,96205.13
2018-10-04T19:26:41.628Z,96206.25
2018-10-04T19:29:06.149Z,96209.69
2018-10-04T19:31:32.756Z,96212.70
2018-10-04T19:33:59.436Z,96216.27
2018-10-04T19:36:26.085Z,96213.59
2018-10-04T19:38:52.722Z,96219.69
2018-10-04T19:41:19.371Z,96223.84
2018-10-04T19:43:48.769Z,96229.30
2018-10-04T19:46:15.426Z,96225.33
2018-10-04T19:48:44.052Z,96235.23
2018-10-04T19:51:10.863Z,96234.22
2018-10-04T19:53:37.597Z,96230.94
2018-10-04T19:56:04.323Z,96236.98
2018-10-04T19:58:30.986Z,96240.99
2018-10-04T20:00:57.624Z,96246.34
2018-10-04T20:03:24.402Z,96248.39
2018-10-04T20:05:51.244Z,96243.18
2018-10-04T20:08:17.904Z,96246.59
2018-10-04T20:10:44.538Z,96240.50
2018-10-04T20:13:12.151Z,96249.23
2018-10-04T20:15:38.801Z,96245.06
2018-10-04T20:18:05.450Z,96247.22
2018-10-04T20:20:32.106Z,96253.28
2018-10-04T20:22:58.856Z,96256.20
2018-10-04T20:25:25.494Z,96251.23
2018-10-04T20:27:54.949Z,96257.07
2018-10-04T20:30:21.633Z,96262.36
2018-10-04T20:32:48.650Z,96269.22
2018-10-04T20:35:15.290Z,96267.69
2018-10-04T20:37:41.979Z,96264.77
2018-10-04T20:40:08.676Z,96265.53
2018-10-04T20:42:35.341Z,96270.68
2018-10-04T20:45:02.099Z,96269.42
2018-10-04T20:47:29.569Z,96270.05
2018-10-04T20:49:56.333Z,96271.20
2018-10-04T20:52:22.950Z,96275.37
2018-10-04T20:54:49.593Z,96275.09
2018-10-04T20:57:16.273Z,96276.73
2018-10-04T20:59:42.926Z,96284.20
2018-10-04T21:02:09.704Z,96287.36
2018-10-04T21:04:36.380Z,96289.63
2018-10-04T21:07:04.359Z,96292.92
2018-10-04T21:09:29.695Z,96288.95
2018-10-04T21:11:56.525Z,96286.06
2018-10-04T21:14:23.211Z,96287.95
2018-10-04T21:16:51.201Z,96286.94
2018-10-04T21:19:16.551Z,96281.89
2018-10-04T21:21:46.039Z,96280.08
2018-10-04T21:24:14.950Z,96284.39
2018-10-04T21:26:40.404Z,96283.38
2018-10-04T21:29:07.115Z,96295.38
2018-10-04T21:31:33.919Z,96296.37
2018-10-04T21:34:00.683Z,96290.67
2018-10-04T21:36:28.665Z,96293.83
2018-10-04T21:38:53.960Z,96295.45
2018-10-04T21:41:20.627Z,96292.16
2018-10-04T21:43:47.337Z,96294.45
2018-10-04T21:46:13.977Z,96286.48
2018-10-04T21:48:40.684Z,96290.41
2018-10-04T21:51:07.382Z,96284.70
2018-10-04T21:53:34.019Z,96285.70
2018-10-04T21:56:00.719Z,96286.16
2018-10-04T21:58:27.520Z,96282.75
2018-10-04T22:00:54.168Z,96282.92
2018-10-04T22:03:22.200Z,96284.48
2018-10-04T22:05:47.477Z,96291.20
2018-10-04T22:08:14.171Z,96290.31
2018-10-04T22:10:40.856Z,96295.75
2018-10-04T22:13:07.551Z,96296.50
2018-10-04T22:15:34.232Z,96297.75
2018-10-04T22:18:00.979Z,96290.41
2018-10-04T22:20:27.691Z,96286.09
2018-10-04T22:22:54.429Z,96296.45
2018-10-04T22:25:21.200Z,96301.38
2018-10-04T22:27:47.905Z,96307.09
2018-10-04T22:30:14.597Z,96306.17
2018-10-04T22:32:41.319Z,96305.80
2018-10-04T22:35:07.959Z,96304.73
2018-10-04T22:37:34.653Z,96298.54
2018-10-04T22:40:01.341Z,96306.00
2018-10-04T22:42:28.039Z,96311.19
2018-10-04T22:44:54.676Z,96318.00
2018-10-04T22:47:21.366Z,96317.45
2018-10-04T22:49:54.728Z,96316.69
2018-10-04T22:52:14.698Z,96319.09
2018-10-04T22:54:41.393Z,96327.47
2018-10-04T22:57:08.045Z,96320.21
2018-10-04T22:59:34.745Z,96329.09
2018-10-04T23:02:01.455Z,96331.09
2018-10-04T23:04:28.148Z,96330.94
2018-10-04T23:06:55.972Z,96336.22
2018-10-04T23:09:22.939Z,96344.70
2018-10-04T23:11:48.305Z,96347.57
2018-10-04T23:14:15.005Z,96345.69
2018-10-04T23:16:41.716Z,96352.77
2018-10-04T23:19:08.442Z,96347.06
2018-10-04T23:21:35.077Z,96355.66
2018-10-04T23:24:01.876Z,96350.95
2018-10-04T23:26:28.523Z,96360.19
2018-10-04T23:28:55.325Z,96357.41
2018-10-04T23:31:22.025Z,96351.33
2018-10-04T23:33:48.683Z,96353.23
2018-10-04T23:36:15.388Z,96348.24
2018-10-04T23:38:42.013Z,96351.67
2018-10-04T23:41:08.683Z,96346.20
2018-10-04T23:43:35.337Z,96353.40
2018-10-04T23:46:02.075Z,96347.84
2018-10-04T23:48:28.776Z,96350.77
2018-10-04T23:50:55.451Z,96340.02
2018-10-04T23:53:22.072Z,96335.09
2018-10-04T23:55:48.727Z,96330.77
2018-10-04T23:58:15.367Z,96337.55
